sensor_id;sensor_type;location;lat;lon;timestamp;P1;durP1;ratioP1;P2;durP2;ratioP2
33902;SDS011;20194;50.950;5.346;2023-10-13T00:00:28;25.88;;;12.77;;
33902;SDS011;20194;50.950;5.346;2023-10-13T00:03:03;25.63;;;12.10;;
33902;SDS011;20194;50.950;5.346;2023-10-13T00:05:31;20.58;;;11.85;;
33902;SDS011;20194;50.950;5.346;2023-10-13T00:08:00;27.90;;;11.52;;
33902;SDS011;20194;50.950;5.346;2023-10-13T00:10:28;24.52;;;12.63;;
33902;SDS011;20194;50.950;5.346;2023-10-13T00:12:58;23.80;;;11.80;;
33902;SDS011;20194;50.950;5.346;2023-10-13T00:15:40;22.90;;;11.75;;
33902;SDS011;20194;50.950;5.346;2023-10-13T00:18:24;23.45;;;13.45;;
33902;SDS011;20194;50.950;5.346;2023-10-13T00:20:52;24.38;;;13.18;;
33902;SDS011;20194;50.950;5.346;2023-10-13T00:23:21;21.90;;;11.68;;
33902;SDS011;20194;50.950;5.346;2023-10-13T00:25:48;23.20;;;13.68;;
33902;SDS011;20194;50.950;5.346;2023-10-13T00:28:24;19.05;;;11.60;;
33902;SDS011;20194;50.950;5.346;2023-10-13T00:31:00;27.02;;;12.63;;
33902;SDS011;20194;50.950;5.346;2023-10-13T00:33:37;20.17;;;11.98;;
33902;SDS011;20194;50.950;5.346;2023-10-13T00:36:04;23.65;;;12.93;;
33902;SDS011;20194;50.950;5.346;2023-10-13T00:38:31;18.60;;;12.25;;
33902;SDS011;20194;50.950;5.346;2023-10-13T00:40:57;18.80;;;12.75;;
33902;SDS011;20194;50.950;5.346;2023-10-13T00:43:29;23.20;;;11.80;;
33902;SDS011;20194;50.950;5.346;2023-10-13T00:45:58;29.67;;;12.73;;
33902;SDS011;20194;50.950;5.346;2023-10-13T00:48:29;27.25;;;12.80;;
33902;SDS011;20194;50.950;5.346;2023-10-13T00:51:00;18.05;;;11.25;;
33902;SDS011;20194;50.950;5.346;2023-10-13T00:53:34;24.50;;;12.80;;
33902;SDS011;20194;50.950;5.346;2023-10-13T00:56:09;26.83;;;13.55;;
33902;SDS011;20194;50.950;5.346;2023-10-13T00:58:43;23.20;;;12.38;;
33902;SDS011;20194;50.950;5.346;2023-10-13T01:01:16;24.88;;;12.38;;
33902;SDS011;20194;50.950;5.346;2023-10-13T01:03:52;22.35;;;12.35;;
33902;SDS011;20194;50.950;5.346;2023-10-13T01:06:20;23.15;;;12.32;;
33902;SDS011;20194;50.950;5.346;2023-10-13T01:08:55;19.10;;;13.00;;
33902;SDS011;20194;50.950;5.346;2023-10-13T01:11:44;29.03;;;12.90;;
33902;SDS011;20194;50.950;5.346;2023-10-13T01:16:49;26.05;;;12.50;;
33902;SDS011;20194;50.950;5.346;2023-10-13T01:19:18;21.80;;;11.63;;
33902;SDS011;20194;50.950;5.346;2023-10-13T01:21:50;26.67;;;12.60;;
33902;SDS011;20194;50.950;5.346;2023-10-13T01:24:21;26.45;;;12.43;;
33902;SDS011;20194;50.950;5.346;2023-10-13T01:26:49;23.45;;;13.23;;
33902;SDS011;20194;50.950;5.346;2023-10-13T01:29:17;22.98;;;11.88;;
33902;SDS011;20194;50.950;5.346;2023-10-13T01:31:44;23.30;;;12.50;;
33902;SDS011;20194;50.950;5.346;2023-10-13T01:34:11;26.60;;;12.23;;
33902;SDS011;20194;50.950;5.346;2023-10-13T01:36:38;21.58;;;12.50;;
33902;SDS011;20194;50.950;5.346;2023-10-13T01:39:05;27.00;;;13.52;;
33902;SDS011;20194;50.950;5.346;2023-10-13T01:41:33;28.48;;;13.20;;
33902;SDS011;20194;50.950;5.346;2023-10-13T01:44:02;22.65;;;12.55;;
33902;SDS011;20194;50.950;5.346;2023-10-13T01:46:29;22.55;;;12.50;;
33902;SDS011;20194;50.950;5.346;2023-10-13T01:48:54;22.23;;;11.70;;
33902;SDS011;20194;50.950;5.346;2023-10-13T01:51:22;23.85;;;12.05;;
33902;SDS011;20194;50.950;5.346;2023-10-13T01:53:53;28.55;;;12.70;;
33902;SDS011;20194;50.950;5.346;2023-10-13T01:56:21;25.17;;;11.38;;
33902;SDS011;20194;50.950;5.346;2023-10-13T01:58:48;30.25;;;14.68;;
33902;SDS011;20194;50.950;5.346;2023-10-13T02:01:14;21.10;;;11.82;;
33902;SDS011;20194;50.950;5.346;2023-10-13T02:03:51;24.13;;;12.23;;
33902;SDS011;20194;50.950;5.346;2023-10-13T02:06:30;27.08;;;12.18;;
33902;SDS011;20194;50.950;5.346;2023-10-13T02:09:03;21.30;;;11.18;;
33902;SDS011;20194;50.950;5.346;2023-10-13T02:11:41;30.30;;;12.32;;
33902;SDS011;20194;50.950;5.346;2023-10-13T02:14:10;20.50;;;10.95;;
33902;SDS011;20194;50.950;5.346;2023-10-13T02:16:40;26.15;;;12.45;;
33902;SDS011;20194;50.950;5.346;2023-10-13T02:19:06;21.00;;;11.68;;
33902;SDS011;20194;50.950;5.346;2023-10-13T02:21:35;30.60;;;12.10;;
33902;SDS011;20194;50.950;5.346;2023-10-13T02:24:10;26.83;;;12.05;;
33902;SDS011;20194;50.950;5.346;2023-10-13T02:26:43;30.67;;;12.70;;
33902;SDS011;20194;50.950;5.346;2023-10-13T02:29:09;24.75;;;11.65;;
33902;SDS011;20194;50.950;5.346;2023-10-13T02:31:38;28.05;;;12.18;;
33902;SDS011;20194;50.950;5.346;2023-10-13T02:34:07;27.17;;;11.10;;
33902;SDS011;20194;50.950;5.346;2023-10-13T02:36:34;21.20;;;11.50;;
33902;SDS011;20194;50.950;5.346;2023-10-13T02:39:13;30.38;;;12.35;;
33902;SDS011;20194;50.950;5.346;2023-10-13T02:41:41;22.40;;;11.43;;
33902;SDS011;20194;50.950;5.346;2023-10-13T02:44:14;23.17;;;11.87;;
33902;SDS011;20194;50.950;5.346;2023-10-13T02:46:55;19.98;;;10.35;;
33902;SDS011;20194;50.950;5.346;2023-10-13T02:49:30;24.33;;;11.07;;
33902;SDS011;20194;50.950;5.346;2023-10-13T02:51:59;18.38;;;11.00;;
33902;SDS011;20194;50.950;5.346;2023-10-13T02:54:30;25.70;;;11.55;;
33902;SDS011;20194;50.950;5.346;2023-10-13T02:56:56;26.05;;;10.88;;
33902;SDS011;20194;50.950;5.346;2023-10-13T02:59:24;23.98;;;10.63;;
33902;SDS011;20194;50.950;5.346;2023-10-13T03:02:02;27.58;;;11.77;;
33902;SDS011;20194;50.950;5.346;2023-10-13T03:05:04;22.83;;;10.45;;
33902;SDS011;20194;50.950;5.346;2023-10-13T03:07:38;18.45;;;9.38;;
33902;SDS011;20194;50.950;5.346;2023-10-13T03:10:08;23.30;;;10.52;;
33902;SDS011;20194;50.950;5.346;2023-10-13T03:12:37;19.55;;;9.63;;
33902;SDS011;20194;50.950;5.346;2023-10-13T03:15:04;18.65;;;10.48;;
33902;SDS011;20194;50.950;5.346;2023-10-13T03:17:55;19.48;;;9.15;;
33902;SDS011;20194;50.950;5.346;2023-10-13T03:20:23;24.15;;;10.38;;
33902;SDS011;20194;50.950;5.346;2023-10-13T03:22:56;17.67;;;10.07;;
33902;SDS011;20194;50.950;5.346;2023-10-13T03:25:25;18.73;;;9.43;;
33902;SDS011;20194;50.950;5.346;2023-10-13T03:27:55;20.02;;;8.93;;
33902;SDS011;20194;50.950;5.346;2023-10-13T03:30:21;14.18;;;9.07;;
33902;SDS011;20194;50.950;5.346;2023-10-13T03:32:54;23.00;;;9.55;;
33902;SDS011;20194;50.950;5.346;2023-10-13T03:35:21;24.45;;;9.95;;
33902;SDS011;20194;50.950;5.346;2023-10-13T03:37:52;16.30;;;9.30;;
33902;SDS011;20194;50.950;5.346;2023-10-13T03:40:20;20.58;;;9.05;;
33902;SDS011;20194;50.950;5.346;2023-10-13T03:42:50;17.95;;;8.63;;
33902;SDS011;20194;50.950;5.346;2023-10-13T03:45:33;20.83;;;8.90;;
33902;SDS011;20194;50.950;5.346;2023-10-13T03:48:07;21.38;;;9.05;;
33902;SDS011;20194;50.950;5.346;2023-10-13T03:50:40;18.48;;;8.98;;
33902;SDS011;20194;50.950;5.346;2023-10-13T03:53:13;20.20;;;8.35;;
33902;SDS011;20194;50.950;5.346;2023-10-13T03:55:39;14.68;;;7.35;;
33902;SDS011;20194;50.950;5.346;2023-10-13T04:00:39;17.50;;;7.68;;
33902;SDS011;20194;50.950;5.346;2023-10-13T04:03:07;16.98;;;7.53;;
33902;SDS011;20194;50.950;5.346;2023-10-13T04:05:33;14.13;;;7.75;;
33902;SDS011;20194;50.950;5.346;2023-10-13T04:08:04;18.48;;;8.23;;
33902;SDS011;20194;50.950;5.346;2023-10-13T04:10:48;20.40;;;7.95;;
33902;SDS011;20194;50.950;5.346;2023-10-13T04:13:17;11.93;;;6.75;;
33902;SDS011;20194;50.950;5.346;2023-10-13T04:16:02;19.40;;;7.90;;
33902;SDS011;20194;50.950;5.346;2023-10-13T04:18:47;16.35;;;7.57;;
33902;SDS011;20194;50.950;5.346;2023-10-13T04:21:26;14.50;;;6.82;;
33902;SDS011;20194;50.950;5.346;2023-10-13T04:24:04;21.10;;;7.60;;
33902;SDS011;20194;50.950;5.346;2023-10-13T04:26:49;19.17;;;7.70;;
33902;SDS011;20194;50.950;5.346;2023-10-13T04:29:35;14.05;;;7.60;;
33902;SDS011;20194;50.950;5.346;2023-10-13T04:32:11;21.85;;;7.75;;
33902;SDS011;20194;50.950;5.346;2023-10-13T04:34:43;21.70;;;7.95;;
33902;SDS011;20194;50.950;5.346;2023-10-13T04:37:13;18.85;;;7.50;;
33902;SDS011;20194;50.950;5.346;2023-10-13T04:39:57;15.90;;;7.60;;
33902;SDS011;20194;50.950;5.346;2023-10-13T04:42:34;12.95;;;7.07;;
33902;SDS011;20194;50.950;5.346;2023-10-13T04:45:16;16.95;;;6.95;;
33902;SDS011;20194;50.950;5.346;2023-10-13T04:48:00;17.95;;;7.32;;
33902;SDS011;20194;50.950;5.346;2023-10-13T04:50:44;14.18;;;6.88;;
33902;SDS011;20194;50.950;5.346;2023-10-13T04:53:14;14.85;;;7.05;;
33902;SDS011;20194;50.950;5.346;2023-10-13T04:56:19;16.60;;;6.82;;
33902;SDS011;20194;50.950;5.346;2023-10-13T04:59:03;12.77;;;6.20;;
33902;SDS011;20194;50.950;5.346;2023-10-13T05:02:01;20.60;;;7.05;;
33902;SDS011;20194;50.950;5.346;2023-10-13T05:04:46;22.90;;;6.72;;
33902;SDS011;20194;50.950;5.346;2023-10-13T05:07:30;19.63;;;6.28;;
33902;SDS011;20194;50.950;5.346;2023-10-13T05:10:15;14.57;;;6.07;;
33902;SDS011;20194;50.950;5.346;2023-10-13T05:13:00;20.50;;;6.00;;
33902;SDS011;20194;50.950;5.346;2023-10-13T05:15:47;19.50;;;6.45;;
33902;SDS011;20194;50.950;5.346;2023-10-13T05:18:32;18.98;;;6.32;;
33902;SDS011;20194;50.950;5.346;2023-10-13T05:21:17;22.00;;;7.20;;
33902;SDS011;20194;50.950;5.346;2023-10-13T05:24:02;21.85;;;6.13;;
33902;SDS011;20194;50.950;5.346;2023-10-13T05:26:47;23.42;;;5.75;;
33902;SDS011;20194;50.950;5.346;2023-10-13T05:29:31;22.27;;;6.00;;
33902;SDS011;20194;50.950;5.346;2023-10-13T05:32:15;17.15;;;7.00;;
33902;SDS011;20194;50.950;5.346;2023-10-13T05:34:59;14.90;;;6.40;;
33902;SDS011;20194;50.950;5.346;2023-10-13T05:40:28;21.17;;;6.47;;
33902;SDS011;20194;50.950;5.346;2023-10-13T05:43:12;24.55;;;6.25;;
33902;SDS011;20194;50.950;5.346;2023-10-13T05:46:01;19.08;;;6.30;;
33902;SDS011;20194;50.950;5.346;2023-10-13T05:48:46;23.27;;;6.93;;
33902;SDS011;20194;50.950;5.346;2023-10-13T05:51:24;21.02;;;6.75;;
33902;SDS011;20194;50.950;5.346;2023-10-13T05:54:12;19.65;;;5.70;;
33902;SDS011;20194;50.950;5.346;2023-10-13T05:56:39;18.65;;;6.10;;
33902;SDS011;20194;50.950;5.346;2023-10-13T05:59:27;14.15;;;5.30;;
33902;SDS011;20194;50.950;5.346;2023-10-13T06:02:12;22.35;;;5.82;;
33902;SDS011;20194;50.950;5.346;2023-10-13T06:04:58;13.95;;;6.88;;
33902;SDS011;20194;50.950;5.346;2023-10-13T06:07:44;19.92;;;5.80;;
33902;SDS011;20194;50.950;5.346;2023-10-13T06:10:28;28.27;;;6.53;;
33902;SDS011;20194;50.950;5.346;2023-10-13T06:13:12;24.23;;;7.20;;
33902;SDS011;20194;50.950;5.346;2023-10-13T06:15:56;21.35;;;6.32;;
33902;SDS011;20194;50.950;5.346;2023-10-13T06:18:40;25.48;;;6.63;;
33902;SDS011;20194;50.950;5.346;2023-10-13T06:21:25;25.05;;;6.38;;
33902;SDS011;20194;50.950;5.346;2023-10-13T06:24:09;19.40;;;6.20;;
33902;SDS011;20194;50.950;5.346;2023-10-13T06:26:55;15.73;;;5.47;;
33902;SDS011;20194;50.950;5.346;2023-10-13T06:29:39;18.58;;;5.90;;
33902;SDS011;20194;50.950;5.346;2023-10-13T06:32:06;19.55;;;5.63;;
33902;SDS011;20194;50.950;5.346;2023-10-13T06:34:41;19.60;;;6.00;;
33902;SDS011;20194;50.950;5.346;2023-10-13T06:37:13;20.88;;;6.00;;
33902;SDS011;20194;50.950;5.346;2023-10-13T06:39:49;23.45;;;6.13;;
33902;SDS011;20194;50.950;5.346;2023-10-13T06:42:15;15.13;;;5.93;;
33902;SDS011;20194;50.950;5.346;2023-10-13T06:44:43;14.45;;;5.82;;
33902;SDS011;20194;50.950;5.346;2023-10-13T06:47:11;21.10;;;5.50;;
33902;SDS011;20194;50.950;5.346;2023-10-13T06:49:38;27.75;;;6.60;;
33902;SDS011;20194;50.950;5.346;2023-10-13T06:52:08;18.58;;;6.50;;
33902;SDS011;20194;50.950;5.346;2023-10-13T06:54:34;21.02;;;6.03;;
33902;SDS011;20194;50.950;5.346;2023-10-13T06:57:00;22.15;;;6.15;;
33902;SDS011;20194;50.950;5.346;2023-10-13T06:59:29;20.35;;;6.72;;
33902;SDS011;20194;50.950;5.346;2023-10-13T07:01:58;18.98;;;5.63;;
33902;SDS011;20194;50.950;5.346;2023-10-13T07:04:30;15.20;;;5.53;;
33902;SDS011;20194;50.950;5.346;2023-10-13T07:06:56;15.00;;;5.10;;
33902;SDS011;20194;50.950;5.346;2023-10-13T07:09:21;22.98;;;7.30;;
33902;SDS011;20194;50.950;5.346;2023-10-13T07:11:59;15.05;;;6.72;;
33902;SDS011;20194;50.950;5.346;2023-10-13T07:14:26;13.75;;;5.45;;
33902;SDS011;20194;50.950;5.346;2023-10-13T07:16:56;18.90;;;5.97;;
33902;SDS011;20194;50.950;5.346;2023-10-13T07:19:26;21.90;;;6.72;;
33902;SDS011;20194;50.950;5.346;2023-10-13T07:21:55;21.92;;;6.18;;
33902;SDS011;20194;50.950;5.346;2023-10-13T07:24:29;14.88;;;5.55;;
33902;SDS011;20194;50.950;5.346;2023-10-13T07:26:58;22.50;;;6.05;;
33902;SDS011;20194;50.950;5.346;2023-10-13T07:29:31;18.20;;;5.82;;
33902;SDS011;20194;50.950;5.346;2023-10-13T07:31:59;18.75;;;5.63;;
33902;SDS011;20194;50.950;5.346;2023-10-13T07:34:28;10.43;;;4.50;;
33902;SDS011;20194;50.950;5.346;2023-10-13T07:36:57;17.45;;;6.43;;
33902;SDS011;20194;50.950;5.346;2023-10-13T07:39:27;17.77;;;5.68;;
33902;SDS011;20194;50.950;5.346;2023-10-13T07:41:59;19.48;;;5.20;;
33902;SDS011;20194;50.950;5.346;2023-10-13T07:44:40;16.88;;;5.75;;
33902;SDS011;20194;50.950;5.346;2023-10-13T07:47:11;22.27;;;6.38;;
33902;SDS011;20194;50.950;5.346;2023-10-13T07:49:39;17.30;;;5.97;;
33902;SDS011;20194;50.950;5.346;2023-10-13T07:52:07;14.02;;;5.82;;
33902;SDS011;20194;50.950;5.346;2023-10-13T07:54:45;17.95;;;5.60;;
33902;SDS011;20194;50.950;5.346;2023-10-13T07:57:15;22.58;;;6.05;;
33902;SDS011;20194;50.950;5.346;2023-10-13T07:59:42;21.38;;;6.40;;
33902;SDS011;20194;50.950;5.346;2023-10-13T08:02:16;19.85;;;6.05;;
33902;SDS011;20194;50.950;5.346;2023-10-13T08:05:01;16.23;;;5.90;;
33902;SDS011;20194;50.950;5.346;2023-10-13T08:07:29;14.25;;;4.93;;
33902;SDS011;20194;50.950;5.346;2023-10-13T08:09:56;17.23;;;6.22;;
33902;SDS011;20194;50.950;5.346;2023-10-13T08:12:24;13.98;;;5.60;;
33902;SDS011;20194;50.950;5.346;2023-10-13T08:14:50;22.70;;;5.50;;
33902;SDS011;20194;50.950;5.346;2023-10-13T08:17:34;16.23;;;5.80;;
33902;SDS011;20194;50.950;5.346;2023-10-13T08:20:00;16.05;;;5.57;;
33902;SDS011;20194;50.950;5.346;2023-10-13T08:22:36;17.55;;;5.72;;
33902;SDS011;20194;50.950;5.346;2023-10-13T08:25:03;19.15;;;5.78;;
33902;SDS011;20194;50.950;5.346;2023-10-13T08:27:48;15.80;;;5.88;;
33902;SDS011;20194;50.950;5.346;2023-10-13T08:30:51;13.77;;;5.50;;
33902;SDS011;20194;50.950;5.346;2023-10-13T08:33:19;20.60;;;6.07;;
33902;SDS011;20194;50.950;5.346;2023-10-13T08:35:52;17.85;;;5.55;;
33902;SDS011;20194;50.950;5.346;2023-10-13T08:38:40;18.10;;;6.05;;
33902;SDS011;20194;50.950;5.346;2023-10-13T08:41:16;20.30;;;5.15;;
33902;SDS011;20194;50.950;5.346;2023-10-13T08:43:41;17.70;;;6.45;;
33902;SDS011;20194;50.950;5.346;2023-10-13T08:46:15;13.80;;;5.53;;
33902;SDS011;20194;50.950;5.346;2023-10-13T08:48:58;16.48;;;5.68;;
33902;SDS011;20194;50.950;5.346;2023-10-13T08:51:39;24.95;;;6.18;;
33902;SDS011;20194;50.950;5.346;2023-10-13T08:54:11;18.52;;;6.85;;
33902;SDS011;20194;50.950;5.346;2023-10-13T08:56:59;15.35;;;6.28;;
33902;SDS011;20194;50.950;5.346;2023-10-13T08:59:44;15.02;;;5.65;;
33902;SDS011;20194;50.950;5.346;2023-10-13T09:02:19;22.75;;;5.35;;
33902;SDS011;20194;50.950;5.346;2023-10-13T09:05:07;16.33;;;6.15;;
33902;SDS011;20194;50.950;5.346;2023-10-13T09:07:53;15.68;;;6.65;;
33902;SDS011;20194;50.950;5.346;2023-10-13T09:10:23;15.02;;;6.13;;
33902;SDS011;20194;50.950;5.346;2023-10-13T09:12:59;22.33;;;7.15;;
33902;SDS011;20194;50.950;5.346;2023-10-13T09:15:29;13.50;;;6.25;;
33902;SDS011;20194;50.950;5.346;2023-10-13T09:18:25;14.73;;;6.95;;
33902;SDS011;20194;50.950;5.346;2023-10-13T09:21:08;14.05;;;6.78;;
33902;SDS011;20194;50.950;5.346;2023-10-13T09:23:54;10.18;;;5.97;;
33902;SDS011;20194;50.950;5.346;2023-10-13T09:26:39;16.88;;;7.35;;
33902;SDS011;20194;50.950;5.346;2023-10-13T09:29:17;13.15;;;6.45;;
33902;SDS011;20194;50.950;5.346;2023-10-13T09:31:44;17.20;;;6.55;;
33902;SDS011;20194;50.950;5.346;2023-10-13T09:34:19;19.67;;;6.78;;
33902;SDS011;20194;50.950;5.346;2023-10-13T09:36:56;13.63;;;7.00;;
33902;SDS011;20194;50.950;5.346;2023-10-13T09:39:28;16.55;;;7.30;;
33902;SDS011;20194;50.950;5.346;2023-10-13T09:42:10;19.55;;;7.03;;
33902;SDS011;20194;50.950;5.346;2023-10-13T09:44:37;22.05;;;7.50;;
33902;SDS011;20194;50.950;5.346;2023-10-13T09:47:08;27.75;;;7.40;;
33902;SDS011;20194;50.950;5.346;2023-10-13T09:49:45;11.50;;;6.60;;
33902;SDS011;20194;50.950;5.346;2023-10-13T09:52:14;11.48;;;6.25;;
33902;SDS011;20194;50.950;5.346;2023-10-13T09:55:36;18.52;;;7.13;;
33902;SDS011;20194;50.950;5.346;2023-10-13T09:57:51;21.55;;;8.15;;
33902;SDS011;20194;50.950;5.346;2023-10-13T10:00:23;17.83;;;8.82;;
33902;SDS011;20194;50.950;5.346;2023-10-13T10:02:59;17.45;;;6.80;;
33902;SDS011;20194;50.950;5.346;2023-10-13T10:05:40;16.42;;;6.57;;
33902;SDS011;20194;50.950;5.346;2023-10-13T10:08:07;16.88;;;7.15;;
33902;SDS011;20194;50.950;5.346;2023-10-13T10:10:51;20.38;;;7.15;;
33902;SDS011;20194;50.950;5.346;2023-10-13T10:13:27;18.52;;;7.35;;
33902;SDS011;20194;50.950;5.346;2023-10-13T10:16:11;15.55;;;7.03;;
33902;SDS011;20194;50.950;5.346;2023-10-13T10:18:40;14.85;;;6.97;;
33902;SDS011;20194;50.950;5.346;2023-10-13T10:21:06;20.75;;;6.75;;
33902;SDS011;20194;50.950;5.346;2023-10-13T10:23:32;16.83;;;6.90;;
33902;SDS011;20194;50.950;5.346;2023-10-13T10:26:13;17.80;;;6.55;;
33902;SDS011;20194;50.950;5.346;2023-10-13T10:28:41;15.30;;;5.60;;
33902;SDS011;20194;50.950;5.346;2023-10-13T10:31:08;21.98;;;6.38;;
33902;SDS011;20194;50.950;5.346;2023-10-13T10:33:37;17.25;;;6.85;;
33902;SDS011;20194;50.950;5.346;2023-10-13T10:36:04;20.55;;;5.90;;
33902;SDS011;20194;50.950;5.346;2023-10-13T10:38:30;17.35;;;6.53;;
33902;SDS011;20194;50.950;5.346;2023-10-13T10:41:02;18.10;;;6.78;;
33902;SDS011;20194;50.950;5.346;2023-10-13T10:46:15;20.05;;;7.03;;
33902;SDS011;20194;50.950;5.346;2023-10-13T10:49:07;15.50;;;6.78;;
33902;SDS011;20194;50.950;5.346;2023-10-13T10:51:33;21.70;;;7.32;;
33902;SDS011;20194;50.950;5.346;2023-10-13T10:54:17;16.70;;;6.47;;
33902;SDS011;20194;50.950;5.346;2023-10-13T10:56:44;25.20;;;6.35;;
33902;SDS011;20194;50.950;5.346;2023-10-13T11:01:44;23.67;;;6.63;;
33902;SDS011;20194;50.950;5.346;2023-10-13T11:04:16;18.42;;;5.80;;
33902;SDS011;20194;50.950;5.346;2023-10-13T11:06:49;27.23;;;7.00;;
33902;SDS011;20194;50.950;5.346;2023-10-13T11:09:26;25.15;;;5.85;;
33902;SDS011;20194;50.950;5.346;2023-10-13T11:12:08;23.98;;;7.05;;
33902;SDS011;20194;50.950;5.346;2023-10-13T11:14:42;16.35;;;6.93;;
33902;SDS011;20194;50.950;5.346;2023-10-13T11:17:18;22.27;;;6.45;;
33902;SDS011;20194;50.950;5.346;2023-10-13T11:19:49;17.65;;;6.72;;
33902;SDS011;20194;50.950;5.346;2023-10-13T11:22:16;24.48;;;6.30;;
33902;SDS011;20194;50.950;5.346;2023-10-13T11:24:57;21.83;;;6.47;;
33902;SDS011;20194;50.950;5.346;2023-10-13T11:27:39;16.55;;;6.57;;
33902;SDS011;20194;50.950;5.346;2023-10-13T11:30:18;22.80;;;5.60;;
33902;SDS011;20194;50.950;5.346;2023-10-13T11:32:57;18.23;;;5.38;;
33902;SDS011;20194;50.950;5.346;2023-10-13T11:35:33;21.40;;;6.03;;
33902;SDS011;20194;50.950;5.346;2023-10-13T11:38:25;16.42;;;5.53;;
33902;SDS011;20194;50.950;5.346;2023-10-13T11:40:53;13.80;;;5.43;;
33902;SDS011;20194;50.950;5.346;2023-10-13T11:46:07;20.13;;;5.80;;
33902;SDS011;20194;50.950;5.346;2023-10-13T11:48:33;23.38;;;6.28;;
33902;SDS011;20194;50.950;5.346;2023-10-13T11:51:04;21.90;;;5.93;;
33902;SDS011;20194;50.950;5.346;2023-10-13T11:53:51;17.65;;;6.07;;
33902;SDS011;20194;50.950;5.346;2023-10-13T11:56:18;22.27;;;6.75;;
33902;SDS011;20194;50.950;5.346;2023-10-13T11:58:48;27.00;;;5.95;;
33902;SDS011;20194;50.950;5.346;2023-10-13T12:01:14;19.92;;;6.22;;
33902;SDS011;20194;50.950;5.346;2023-10-13T12:03:41;21.73;;;5.95;;
33902;SDS011;20194;50.950;5.346;2023-10-13T12:06:26;25.00;;;9.18;;
33902;SDS011;20194;50.950;5.346;2023-10-13T12:08:59;23.58;;;6.22;;
33902;SDS011;20194;50.950;5.346;2023-10-13T12:11:45;19.55;;;5.68;;
33902;SDS011;20194;50.950;5.346;2023-10-13T12:14:16;22.67;;;5.28;;
33902;SDS011;20194;50.950;5.346;2023-10-13T12:16:44;18.38;;;6.45;;
33902;SDS011;20194;50.950;5.346;2023-10-13T12:19:20;28.58;;;6.82;;
33902;SDS011;20194;50.950;5.346;2023-10-13T12:21:53;22.15;;;6.03;;
33902;SDS011;20194;50.950;5.346;2023-10-13T12:24:19;25.13;;;6.40;;
33902;SDS011;20194;50.950;5.346;2023-10-13T12:27:03;17.00;;;6.60;;
33902;SDS011;20194;50.950;5.346;2023-10-13T12:29:48;22.13;;;6.63;;
33902;SDS011;20194;50.950;5.346;2023-10-13T12:32:16;20.63;;;5.35;;
33902;SDS011;20194;50.950;5.346;2023-10-13T12:34:56;19.63;;;6.03;;
33902;SDS011;20194;50.950;5.346;2023-10-13T12:37:41;23.40;;;5.13;;
33902;SDS011;20194;50.950;5.346;2023-10-13T12:40:08;14.55;;;5.47;;
33902;SDS011;20194;50.950;5.346;2023-10-13T12:43:03;19.70;;;5.13;;
33902;SDS011;20194;50.950;5.346;2023-10-13T12:45:49;15.30;;;5.63;;
33902;SDS011;20194;50.950;5.346;2023-10-13T12:48:34;18.90;;;5.40;;
33902;SDS011;20194;50.950;5.346;2023-10-13T12:51:20;22.42;;;5.47;;
33902;SDS011;20194;50.950;5.346;2023-10-13T12:54:06;16.10;;;5.47;;
33902;SDS011;20194;50.950;5.346;2023-10-13T12:56:48;19.30;;;5.97;;
33902;SDS011;20194;50.950;5.346;2023-10-13T12:59:15;20.40;;;5.82;;
33902;SDS011;20194;50.950;5.346;2023-10-13T13:01:42;21.30;;;5.78;;
33902;SDS011;20194;50.950;5.346;2023-10-13T13:04:09;15.88;;;4.80;;
33902;SDS011;20194;50.950;5.346;2023-10-13T13:06:51;18.08;;;6.10;;
33902;SDS011;20194;50.950;5.346;2023-10-13T13:09:18;17.00;;;6.32;;
33902;SDS011;20194;50.950;5.346;2023-10-13T13:11:54;17.90;;;5.32;;
33902;SDS011;20194;50.950;5.346;2023-10-13T13:14:23;16.05;;;5.30;;
33902;SDS011;20194;50.950;5.346;2023-10-13T13:16:55;19.90;;;5.68;;
33902;SDS011;20194;50.950;5.346;2023-10-13T13:19:34;20.88;;;5.38;;
33902;SDS011;20194;50.950;5.346;2023-10-13T13:22:07;25.88;;;6.38;;
33902;SDS011;20194;50.950;5.346;2023-10-13T13:24:40;23.50;;;5.65;;
33902;SDS011;20194;50.950;5.346;2023-10-13T13:27:13;18.53;;;5.10;;
33902;SDS011;20194;50.950;5.346;2023-10-13T13:29:43;14.82;;;5.75;;
33902;SDS011;20194;50.950;5.346;2023-10-13T13:32:09;19.17;;;5.70;;
33902;SDS011;20194;50.950;5.346;2023-10-13T13:34:47;13.43;;;5.18;;
33902;SDS011;20194;50.950;5.346;2023-10-13T13:37:39;15.50;;;5.43;;
33902;SDS011;20194;50.950;5.346;2023-10-13T13:40:06;18.40;;;5.75;;
33902;SDS011;20194;50.950;5.346;2023-10-13T13:42:44;17.15;;;5.85;;
33902;SDS011;20194;50.950;5.346;2023-10-13T13:45:13;13.80;;;5.43;;
33902;SDS011;20194;50.950;5.346;2023-10-13T13:47:57;22.73;;;6.47;;
33902;SDS011;20194;50.950;5.346;2023-10-13T13:50:23;15.23;;;5.82;;
33902;SDS011;20194;50.950;5.346;2023-10-13T13:52:53;27.13;;;7.38;;
33902;SDS011;20194;50.950;5.346;2023-10-13T13:55:22;15.55;;;5.82;;
33902;SDS011;20194;50.950;5.346;2023-10-13T13:57:49;20.00;;;6.03;;
33902;SDS011;20194;50.950;5.346;2023-10-13T14:00:18;14.27;;;5.88;;
33902;SDS011;20194;50.950;5.346;2023-10-13T14:03:05;22.15;;;6.30;;
33902;SDS011;20194;50.950;5.346;2023-10-13T14:05:40;17.65;;;5.07;;
33902;SDS011;20194;50.950;5.346;2023-10-13T14:08:06;15.82;;;5.50;;
33902;SDS011;20194;50.950;5.346;2023-10-13T14:10:37;14.13;;;6.55;;
33902;SDS011;20194;50.950;5.346;2023-10-13T14:13:23;15.40;;;5.45;;
33902;SDS011;20194;50.950;5.346;2023-10-13T14:16:08;14.85;;;5.43;;
33902;SDS011;20194;50.950;5.346;2023-10-13T14:18:42;17.88;;;5.68;;
33902;SDS011;20194;50.950;5.346;2023-10-13T14:21:12;15.02;;;5.32;;
33902;SDS011;20194;50.950;5.346;2023-10-13T14:23:47;11.70;;;5.38;;
33902;SDS011;20194;50.950;5.346;2023-10-13T14:26:14;18.05;;;5.95;;
33902;SDS011;20194;50.950;5.346;2023-10-13T14:28:45;20.25;;;6.20;;
33902;SDS011;20194;50.950;5.346;2023-10-13T14:31:26;16.75;;;6.03;;
33902;SDS011;20194;50.950;5.346;2023-10-13T14:33:56;11.48;;;5.70;;
33902;SDS011;20194;50.950;5.346;2023-10-13T14:36:22;16.88;;;5.57;;
33902;SDS011;20194;50.950;5.346;2023-10-13T14:38:48;16.85;;;5.68;;
33902;SDS011;20194;50.950;5.346;2023-10-13T14:41:17;23.27;;;5.80;;
33902;SDS011;20194;50.950;5.346;2023-10-13T14:43:44;17.30;;;5.82;;
33902;SDS011;20194;50.950;5.346;2023-10-13T14:46:15;15.80;;;5.43;;
33902;SDS011;20194;50.950;5.346;2023-10-13T14:48:45;10.20;;;5.18;;
33902;SDS011;20194;50.950;5.346;2023-10-13T14:51:14;14.10;;;5.88;;
33902;SDS011;20194;50.950;5.346;2023-10-13T14:53:42;11.27;;;5.88;;
33902;SDS011;20194;50.950;5.346;2023-10-13T14:56:17;12.13;;;5.40;;
33902;SDS011;20194;50.950;5.346;2023-10-13T14:58:43;17.50;;;6.50;;
33902;SDS011;20194;50.950;5.346;2023-10-13T15:01:13;14.77;;;6.28;;
33902;SDS011;20194;50.950;5.346;2023-10-13T15:03:52;16.58;;;6.00;;
33902;SDS011;20194;50.950;5.346;2023-10-13T15:06:23;20.80;;;5.70;;
33902;SDS011;20194;50.950;5.346;2023-10-13T15:08:52;21.70;;;5.72;;
33902;SDS011;20194;50.950;5.346;2023-10-13T15:11:21;18.42;;;6.22;;
33902;SDS011;20194;50.950;5.346;2023-10-13T15:13:52;12.88;;;5.28;;
33902;SDS011;20194;50.950;5.346;2023-10-13T15:16:23;14.55;;;6.65;;
33902;SDS011;20194;50.950;5.346;2023-10-13T15:18:52;15.98;;;5.18;;
33902;SDS011;20194;50.950;5.346;2023-10-13T15:21:27;17.33;;;5.63;;
33902;SDS011;20194;50.950;5.346;2023-10-13T15:24:05;9.88;;;5.50;;
33902;SDS011;20194;50.950;5.346;2023-10-13T15:26:47;13.68;;;5.65;;
33902;SDS011;20194;50.950;5.346;2023-10-13T15:29:13;17.67;;;6.10;;